createdAt,value
2023-08-20T00:02:06.076Z,26.10
2023-08-20T00:05:10.370Z,26.09
2023-08-20T00:08:13.593Z,26.09
2023-08-20T00:11:18.214Z,26.04
2023-08-20T00:14:21.143Z,25.97
2023-08-20T00:17:25.773Z,25.94
2023-08-20T00:20:30.010Z,25.79
2023-08-20T00:23:33.445Z,25.79
2023-08-20T00:26:38.342Z,25.76
2023-08-20T00:29:41.466Z,25.74
2023-08-20T00:32:44.432Z,25.71
2023-08-20T00:35:47.191Z,25.65
2023-08-20T00:38:50.107Z,25.62
2023-08-20T00:41:54.270Z,25.57
2023-08-20T00:44:57.143Z,25.53
2023-08-20T00:48:00.452Z,25.54
2023-08-20T00:51:03.670Z,25.53
2023-08-20T00:54:07.404Z,25.44
2023-08-20T00:57:11.959Z,25.46
2023-08-20T01:00:15.194Z,25.46
2023-08-20T01:03:18.402Z,25.46
2023-08-20T01:06:26.214Z,25.41
2023-08-20T01:09:39.864Z,25.39
2023-08-20T01:12:47.704Z,25.42
2023-08-20T01:15:50.635Z,25.42
2023-08-20T01:18:53.559Z,25.42
2023-08-20T01:22:17.206Z,25.38
2023-08-20T01:25:30.477Z,25.38
2023-08-20T01:28:35.068Z,25.33
2023-08-20T01:31:39.053Z,25.29
2023-08-20T01:34:41.910Z,25.31
2023-08-20T01:37:44.792Z,25.28
2023-08-20T01:40:47.786Z,25.26
2023-08-20T01:43:51.925Z,25.28
2023-08-20T01:46:54.843Z,25.22
2023-08-20T01:49:57.960Z,25.19
2023-08-20T01:53:00.964Z,25.16
2023-08-20T01:56:04.034Z,25.13
2023-08-20T01:59:08.341Z,25.10
2023-08-20T02:02:11.415Z,25.10
2023-08-20T02:05:14.310Z,25.08
2023-08-20T02:08:17.064Z,25.05
2023-08-20T02:11:22.775Z,25.02
2023-08-20T02:14:28.135Z,24.98
2023-08-20T02:17:31.093Z,24.95
2023-08-20T02:20:34.020Z,24.84
2023-08-20T02:23:36.772Z,24.82
2023-08-20T02:26:39.707Z,24.78
2023-08-20T02:29:43.761Z,24.76
2023-08-20T02:32:46.651Z,24.69
2023-08-20T02:35:49.534Z,24.77
2023-08-20T02:38:52.294Z,24.69
2023-08-20T02:41:55.113Z,24.63
2023-08-20T02:44:59.175Z,24.61
2023-08-20T02:48:02.553Z,24.60
2023-08-20T02:51:05.884Z,24.53
2023-08-20T02:54:08.752Z,24.53
2023-08-20T02:57:11.899Z,24.46
2023-08-20T03:00:16.972Z,24.45
2023-08-20T03:03:19.830Z,24.47
2023-08-20T03:06:22.647Z,24.46
2023-08-20T03:09:25.375Z,24.33
2023-08-20T03:12:28.207Z,24.20
2023-08-20T03:15:32.339Z,24.19
2023-08-20T03:18:35.172Z,24.24
2023-08-20T03:21:38.044Z,24.20
2023-08-20T03:24:40.727Z,24.20
2023-08-20T03:27:43.749Z,24.26
2023-08-20T03:30:48.252Z,24.19
2023-08-20T03:33:51.350Z,24.16
2023-08-20T03:36:54.396Z,24.16
2023-08-20T03:39:57.355Z,24.17
2023-08-20T03:43:00.268Z,24.18
2023-08-20T03:46:05.163Z,24.12
2023-08-20T03:49:08.086Z,24.08
2023-08-20T03:52:10.955Z,24.05
2023-08-20T03:55:13.726Z,24.00
2023-08-20T03:58:16.650Z,23.97
2023-08-20T04:01:20.915Z,23.93
2023-08-20T04:04:23.929Z,23.95
2023-08-20T04:07:26.784Z,24.04
2023-08-20T04:10:29.546Z,23.91
2023-08-20T04:13:32.505Z,23.95
2023-08-20T04:16:36.582Z,23.87
2023-08-20T04:19:39.437Z,23.84
2023-08-20T04:22:42.891Z,23.85
2023-08-20T04:25:46.269Z,23.87
2023-08-20T04:28:49.163Z,23.89
2023-08-20T04:31:53.253Z,23.90
2023-08-20T04:34:56.139Z,23.96
2023-08-20T04:37:58.982Z,24.02
2023-08-20T04:41:01.707Z,24.01
2023-08-20T04:44:04.993Z,23.89
2023-08-20T04:47:13.277Z,23.96
2023-08-20T04:50:16.903Z,23.98
2023-08-20T04:53:21.290Z,24.08
2023-08-20T04:56:24.049Z,24.02
2023-08-20T04:59:27.289Z,24.02
2023-08-20T05:02:31.439Z,24.07
2023-08-20T05:05:34.362Z,24.21
2023-08-20T05:08:37.248Z,24.36
2023-08-20T05:11:40.054Z,24.43
2023-08-20T05:14:42.974Z,24.54
2023-08-20T05:17:47.403Z,24.49
2023-08-20T05:20:50.322Z,24.47
2023-08-20T05:23:53.142Z,24.56
2023-08-20T05:27:09.408Z,24.62
2023-08-20T05:30:13.225Z,24.67
2023-08-20T05:33:17.494Z,24.57
2023-08-20T05:36:20.551Z,24.49
2023-08-20T05:39:24.275Z,24.52
2023-08-20T05:42:27.024Z,24.54
2023-08-20T05:45:29.922Z,24.51
2023-08-20T05:48:34.280Z,24.60
2023-08-20T05:51:37.017Z,24.66
2023-08-20T05:54:39.849Z,24.66
2023-08-20T05:57:44.000Z,24.62
2023-08-20T06:00:46.940Z,24.47
2023-08-20T06:03:51.149Z,24.46
2023-08-20T06:06:53.909Z,24.48
2023-08-20T06:09:57.888Z,24.56
2023-08-20T06:13:00.580Z,24.69
2023-08-20T06:16:03.557Z,24.61
2023-08-20T06:19:08.314Z,24.55
2023-08-20T06:22:11.149Z,24.60
2023-08-20T06:25:14.781Z,24.73
2023-08-20T06:28:17.491Z,24.77
2023-08-20T06:31:20.430Z,24.91
2023-08-20T06:34:25.354Z,24.87
2023-08-20T06:37:28.107Z,24.96
2023-08-20T06:40:30.970Z,24.98
2023-08-20T06:43:33.738Z,25.05
2023-08-20T06:46:36.591Z,25.07
2023-08-20T06:49:40.821Z,25.05
2023-08-20T06:52:43.933Z,25.01
2023-08-20T06:55:46.890Z,24.99
2023-08-20T06:58:49.638Z,25.17
2023-08-20T07:01:52.477Z,25.12
2023-08-20T07:04:56.738Z,25.05
2023-08-20T07:07:59.450Z,24.99
2023-08-20T07:11:02.312Z,24.91
2023-08-20T07:14:05.359Z,24.82
2023-08-20T07:17:08.183Z,24.80
2023-08-20T07:20:13.128Z,24.81
2023-08-20T07:23:15.991Z,24.79
2023-08-20T07:26:18.874Z,25.05
2023-08-20T07:29:22.039Z,25.21
2023-08-20T07:32:24.813Z,25.49
2023-08-20T07:35:29.599Z,25.76
2023-08-20T07:38:32.313Z,26.40
2023-08-20T07:41:35.134Z,26.79
2023-08-20T07:44:37.965Z,27.07
2023-08-20T07:47:41.138Z,27.40
2023-08-20T07:50:45.458Z,28.11
2023-08-20T07:53:48.173Z,28.54
2023-08-20T07:56:51.021Z,29.17
2023-08-20T07:59:54.336Z,29.60
2023-08-20T08:02:57.063Z,30.24
2023-08-20T08:06:01.324Z,30.30
2023-08-20T08:09:22.746Z,30.18
2023-08-20T08:12:25.750Z,30.58
2023-08-20T08:15:28.610Z,31.05
2023-08-20T08:18:31.476Z,31.15
2023-08-20T08:21:35.708Z,31.14
2023-08-20T08:24:39.760Z,31.28
2023-08-20T08:27:58.257Z,31.43
2023-08-20T08:31:04.622Z,31.21
2023-08-20T08:34:08.575Z,29.81
2023-08-20T08:37:12.811Z,29.65
2023-08-20T08:40:16.097Z,29.43
2023-08-20T08:43:18.999Z,29.11
2023-08-20T08:46:22.664Z,28.90
2023-08-20T08:49:25.593Z,29.27
2023-08-20T08:52:29.842Z,29.30
2023-08-20T08:55:32.731Z,29.19
2023-08-20T08:58:35.567Z,29.68
2023-08-20T09:01:41.037Z,30.11
2023-08-20T09:04:44.599Z,29.92
2023-08-20T09:07:49.063Z,30.02
2023-08-20T09:10:56.554Z,30.52
2023-08-20T09:13:59.262Z,30.94
2023-08-20T09:17:03.504Z,31.56
2023-08-20T09:20:07.102Z,32.26
2023-08-20T09:23:15.003Z,32.61
2023-08-20T09:26:17.842Z,32.82
2023-08-20T09:29:20.581Z,33.07
2023-08-20T09:32:25.353Z,33.12
2023-08-20T09:35:28.035Z,33.29
2023-08-20T09:38:32.361Z,33.35
2023-08-20T09:41:39.515Z,33.17
2023-08-20T09:44:44.295Z,33.69
2023-08-20T09:47:50.571Z,33.84
2023-08-20T09:50:59.417Z,34.09
2023-08-20T09:54:14.428Z,34.01
2023-08-20T09:57:28.441Z,34.11
2023-08-20T10:00:32.149Z,34.19
2023-08-20T10:03:35.393Z,34.13
2023-08-20T10:06:39.141Z,33.83
2023-08-20T10:09:47.029Z,33.73
2023-08-20T10:12:50.219Z,34.12
2023-08-20T10:15:55.608Z,34.06
2023-08-20T10:19:03.656Z,33.72
2023-08-20T10:22:06.799Z,34.37
2023-08-20T10:25:12.669Z,34.86
2023-08-20T10:28:23.720Z,34.87
2023-08-20T10:31:28.237Z,34.73
2023-08-20T10:34:37.217Z,34.90
2023-08-20T10:37:41.341Z,35.06
2023-08-20T10:40:58.828Z,34.57
2023-08-20T10:44:02.363Z,34.47
2023-08-20T10:47:09.084Z,34.69
2023-08-20T10:50:13.177Z,35.04
2023-08-20T10:53:15.954Z,35.09
2023-08-20T10:56:20.381Z,34.84
2023-08-20T10:59:24.461Z,34.84
2023-08-20T11:02:28.066Z,34.20
2023-08-20T11:05:31.082Z,34.15
2023-08-20T11:08:34.532Z,34.52
2023-08-20T11:11:40.203Z,34.71
2023-08-20T11:14:42.987Z,34.94
2023-08-20T11:17:49.974Z,35.40
2023-08-20T11:20:54.188Z,35.52
2023-08-20T11:23:57.525Z,35.57
2023-08-20T11:27:01.724Z,35.93
2023-08-20T11:30:06.794Z,36.00
2023-08-20T11:33:10.686Z,35.74
2023-08-20T11:36:13.618Z,35.58
2023-08-20T11:39:16.545Z,35.45
2023-08-20T11:42:21.422Z,35.42
2023-08-20T11:45:24.348Z,35.59
2023-08-20T11:48:27.166Z,35.81
2023-08-20T11:51:29.892Z,35.53
2023-08-20T11:54:34.376Z,35.71
2023-08-20T11:57:38.823Z,35.78
2023-08-20T12:00:42.161Z,35.91
2023-08-20T12:03:46.681Z,35.62
2023-08-20T12:07:04.228Z,35.34
2023-08-20T12:10:22.580Z,35.33
2023-08-20T12:13:26.762Z,34.94
2023-08-20T12:16:29.608Z,34.80
2023-08-20T12:19:32.512Z,35.25
2023-08-20T12:22:35.199Z,35.33
2023-08-20T12:25:38.423Z,34.96
2023-08-20T12:28:42.904Z,35.07
2023-08-20T12:31:45.642Z,34.92
2023-08-20T12:34:48.482Z,35.08
2023-08-20T12:37:51.205Z,35.09
2023-08-20T12:40:54.076Z,35.05
2023-08-20T12:43:58.428Z,34.85
2023-08-20T12:47:01.163Z,35.06
2023-08-20T12:50:05.429Z,35.18
2023-08-20T12:53:08.147Z,35.07
2023-08-20T12:56:11.548Z,35.08
2023-08-20T12:59:15.744Z,34.97
2023-08-20T13:02:20.357Z,34.85
2023-08-20T13:05:25.004Z,34.66
2023-08-20T13:08:28.339Z,34.47
2023-08-20T13:11:33.475Z,34.45
2023-08-20T13:14:38.225Z,33.71
2023-08-20T13:17:41.519Z,33.94
2023-08-20T13:20:44.753Z,33.90
2023-08-20T13:23:47.624Z,33.83
2023-08-20T13:26:50.405Z,33.63
2023-08-20T13:29:54.682Z,33.83
2023-08-20T13:32:57.452Z,33.78
2023-08-20T13:39:21.028Z,33.80
2023-08-20T13:42:23.792Z,33.64
2023-08-20T13:45:28.083Z,33.02
2023-08-20T13:48:31.063Z,32.92
2023-08-20T13:51:34.070Z,32.94
2023-08-20T13:54:37.526Z,32.59
2023-08-20T13:57:40.331Z,32.56
2023-08-20T14:00:44.640Z,32.62
2023-08-20T14:03:47.486Z,32.80
2023-08-20T14:06:50.412Z,33.06
2023-08-20T14:09:53.286Z,33.06
2023-08-20T14:12:56.022Z,33.13
2023-08-20T14:16:01.538Z,32.87
2023-08-20T14:19:04.607Z,32.22
2023-08-20T14:22:08.322Z,32.30
2023-08-20T14:25:11.495Z,32.44
2023-08-20T14:28:14.552Z,32.19
2023-08-20T14:31:20.306Z,31.74
2023-08-20T14:34:23.224Z,31.72
2023-08-20T14:37:25.939Z,31.88
2023-08-20T14:40:28.745Z,32.14
2023-08-20T14:43:31.944Z,31.94
2023-08-20T14:46:36.244Z,31.97
2023-08-20T14:49:39.179Z,31.95
2023-08-20T14:52:41.876Z,31.92
2023-08-20T14:55:44.811Z,31.95
2023-08-20T14:58:47.580Z,32.14
2023-08-20T15:01:51.802Z,31.95
2023-08-20T15:04:54.720Z,32.04
2023-08-20T15:07:57.565Z,32.09
2023-08-20T15:11:00.714Z,31.91
2023-08-20T15:14:04.083Z,31.98
2023-08-20T15:17:08.143Z,31.86
2023-08-20T15:20:12.566Z,31.86
2023-08-20T15:23:15.500Z,31.32
2023-08-20T15:26:18.644Z,31.32
2023-08-20T15:29:21.424Z,31.05
2023-08-20T15:32:28.092Z,30.99
2023-08-20T15:35:30.957Z,30.89
2023-08-20T15:38:33.798Z,30.94
2023-08-20T15:41:36.695Z,31.06
2023-08-20T15:44:40.241Z,31.04
2023-08-20T15:47:44.557Z,31.17
2023-08-20T15:50:47.425Z,31.14
2023-08-20T15:53:50.163Z,31.08
2023-08-20T15:56:53.330Z,30.90
2023-08-20T15:59:56.061Z,30.88
2023-08-20T16:03:00.400Z,30.78
2023-08-20T16:06:05.354Z,30.57
2023-08-20T16:09:09.363Z,30.43
2023-08-20T16:12:12.255Z,30.15
2023-08-20T16:15:15.139Z,30.28
2023-08-20T16:18:19.416Z,30.28
2023-08-20T16:21:23.103Z,30.20
2023-08-20T16:24:25.851Z,30.14
2023-08-20T16:27:28.725Z,30.00
2023-08-20T16:30:31.470Z,30.04
2023-08-20T16:33:35.745Z,29.75
2023-08-20T16:36:40.096Z,29.81
2023-08-20T16:39:42.825Z,29.83
2023-08-20T16:42:45.919Z,29.66
2023-08-20T16:45:48.744Z,29.65
2023-08-20T16:48:52.818Z,29.70
2023-08-20T16:51:55.719Z,29.65
2023-08-20T16:54:58.524Z,29.58
2023-08-20T16:58:01.408Z,29.41
2023-08-20T17:01:05.394Z,29.31
2023-08-20T17:04:09.789Z,29.25
2023-08-20T17:07:13.274Z,29.15
2023-08-20T17:10:16.115Z,29.11
2023-08-20T17:13:19.286Z,29.00
2023-08-20T17:16:22.699Z,28.96
2023-08-20T17:19:27.412Z,28.90
2023-08-20T17:22:31.029Z,28.81
2023-08-20T17:25:33.831Z,28.67
2023-08-20T17:28:36.849Z,28.63
2023-08-20T17:31:40.332Z,28.58
2023-08-20T17:34:44.640Z,28.58
2023-08-20T17:37:47.470Z,28.54
2023-08-20T17:40:50.314Z,28.47
2023-08-20T17:43:53.162Z,28.40
2023-08-20T17:46:56.300Z,28.34
2023-08-20T17:50:00.664Z,28.30
2023-08-20T17:53:05.610Z,28.26
2023-08-20T17:56:08.564Z,28.25
2023-08-20T17:59:11.475Z,28.14
2023-08-20T18:02:14.338Z,28.04
2023-08-20T18:05:18.929Z,27.96
2023-08-20T18:08:21.631Z,27.87
2023-08-20T18:11:24.535Z,27.80
2023-08-20T18:14:27.230Z,27.73
2023-08-20T18:17:30.446Z,27.65
2023-08-20T18:20:34.772Z,27.60
2023-08-20T18:23:37.491Z,27.49
2023-08-20T18:26:40.234Z,27.39
2023-08-20T18:29:43.054Z,27.26
2023-08-20T18:32:46.189Z,27.16
2023-08-20T18:35:50.639Z,27.14
2023-08-20T18:38:53.353Z,27.08
2023-08-20T18:41:57.389Z,26.99
2023-08-20T18:45:00.505Z,26.91
2023-08-20T18:48:03.860Z,26.78
2023-08-20T18:51:08.862Z,26.74
2023-08-20T18:54:11.677Z,26.72
2023-08-20T18:57:14.742Z,26.64
2023-08-20T19:00:18.899Z,26.54
2023-08-20T19:03:21.841Z,26.41
2023-08-20T19:06:26.234Z,26.43
2023-08-20T19:09:29.491Z,26.43
2023-08-20T19:12:32.354Z,26.43
2023-08-20T19:15:46.605Z,26.42
2023-08-20T19:18:50.838Z,26.29
2023-08-20T19:21:55.421Z,26.28
2023-08-20T19:24:58.103Z,26.20
2023-08-20T19:28:00.973Z,26.29
2023-08-20T19:31:04.550Z,26.10
2023-08-20T19:34:08.505Z,26.09
2023-08-20T19:37:12.776Z,26.12
2023-08-20T19:40:15.718Z,26.06
2023-08-20T19:43:20.353Z,25.93
2023-08-20T19:46:25.484Z,25.97
2023-08-20T19:49:30.063Z,25.90
2023-08-20T19:52:34.272Z,25.84
2023-08-20T19:55:37.008Z,25.82
2023-08-20T19:58:39.964Z,25.74
2023-08-20T20:01:49.685Z,25.72
2023-08-20T20:04:52.582Z,25.57
2023-08-20T20:07:56.851Z,25.50
2023-08-20T20:11:00.661Z,25.49
2023-08-20T20:14:03.717Z,25.46
2023-08-20T20:17:06.793Z,25.46
2023-08-20T20:20:12.534Z,25.45
2023-08-20T20:23:18.096Z,25.43
2023-08-20T20:26:21.011Z,25.42
2023-08-20T20:29:23.919Z,25.39
2023-08-20T20:32:26.709Z,25.38
2023-08-20T20:35:32.337Z,25.33
2023-08-20T20:38:36.616Z,25.27
2023-08-20T20:41:40.226Z,25.18
2023-08-20T20:44:44.003Z,25.19
2023-08-20T20:47:46.807Z,25.18
2023-08-20T20:50:49.912Z,25.18
2023-08-20T20:53:54.630Z,25.17
2023-08-20T20:56:57.432Z,25.15
2023-08-20T21:00:00.313Z,25.04
2023-08-20T21:03:03.256Z,25.01
2023-08-20T21:06:07.268Z,25.01
2023-08-20T21:09:11.488Z,25.04
2023-08-20T21:12:14.223Z,25.00
2023-08-20T21:15:17.434Z,24.96
2023-08-20T21:18:20.154Z,24.94
2023-08-20T21:21:23.056Z,24.97
2023-08-20T21:24:27.265Z,24.94
2023-08-20T21:27:29.961Z,24.89
2023-08-20T21:30:32.849Z,24.88
2023-08-20T21:33:35.804Z,24.84
2023-08-20T21:36:38.814Z,24.78
2023-08-20T21:39:43.118Z,24.76
2023-08-20T21:42:45.880Z,24.68
2023-08-20T21:45:48.951Z,24.62
2023-08-20T21:48:51.701Z,24.51
2023-08-20T21:51:55.112Z,24.42
2023-08-20T21:54:59.419Z,24.30
2023-08-20T21:58:02.133Z,24.11
2023-08-20T22:01:05.277Z,24.01
2023-08-20T22:04:08.065Z,24.00
2023-08-20T22:07:11.589Z,24.01
2023-08-20T22:10:18.827Z,23.99
2023-08-20T22:13:21.600Z,23.93
2023-08-20T22:16:24.481Z,23.95
2023-08-20T22:19:27.780Z,23.94
2023-08-20T22:22:30.654Z,23.92
2023-08-20T22:25:34.774Z,23.80
2023-08-20T22:28:37.812Z,23.66
2023-08-20T22:31:40.735Z,23.59
2023-08-20T22:34:43.497Z,23.47
2023-08-20T22:38:06.219Z,23.41
2023-08-20T22:41:10.403Z,23.30
2023-08-20T22:44:13.319Z,23.35
2023-08-20T22:47:16.627Z,23.38
2023-08-20T22:50:19.664Z,23.45
2023-08-20T22:53:22.513Z,23.50
2023-08-20T22:56:26.671Z,23.53
2023-08-20T22:59:30.011Z,23.49
2023-08-20T23:02:32.918Z,23.48
2023-08-20T23:05:35.646Z,23.43
2023-08-20T23:08:38.562Z,23.37
2023-08-20T23:11:42.669Z,23.36
2023-08-20T23:14:45.521Z,23.34
2023-08-20T23:17:48.588Z,23.31
2023-08-20T23:20:55.495Z,23.30
2023-08-20T23:23:58.374Z,23.30
2023-08-20T23:27:02.464Z,23.27
2023-08-20T23:30:07.253Z,23.25
2023-08-20T23:33:10.119Z,23.15
2023-08-20T23:36:12.976Z,23.13
2023-08-20T23:39:16.333Z,23.15
2023-08-20T23:42:20.400Z,22.99
2023-08-20T23:45:23.242Z,23.00
2023-08-20T23:48:26.169Z,23.05
2023-08-20T23:51:29.154Z,22.95
2023-08-20T23:54:32.046Z,22.97
2023-08-20T23:57:36.135Z,23.00
